createdAt,value
2017-12-04T00:00:45.524Z,33.70
2017-12-04T00:03:13.644Z,35.97
2017-12-04T00:05:41.732Z,35.70
2017-12-04T00:08:10.688Z,35.23
2017-12-04T00:10:38.765Z,33.90
2017-12-04T00:13:06.928Z,37.03
2017-12-04T00:15:35.095Z,32.87
2017-12-04T00:18:03.228Z,32.70
2017-12-04T00:20:31.596Z,36.67
2017-12-04T00:22:59.720Z,49.63
2017-12-04T00:25:30.859Z,32.77
2017-12-04T00:27:58.951Z,33.27
2017-12-04T00:30:27.111Z,30.83
2017-12-04T00:32:55.196Z,32.60
2017-12-04T00:35:23.360Z,34.90
2017-12-04T00:37:51.547Z,34.20
2017-12-04T00:40:19.630Z,32.67
2017-12-04T00:42:47.784Z,32.73
2017-12-04T00:45:15.921Z,36.47
2017-12-04T00:47:44.219Z,38.27
2017-12-04T00:50:12.365Z,36.60
2017-12-04T00:52:40.583Z,36.27
2017-12-04T00:55:08.827Z,36.20
2017-12-04T00:57:36.944Z,38.17
2017-12-04T01:00:05.582Z,38.70
2017-12-04T01:02:33.702Z,36.47
2017-12-04T01:05:01.860Z,36.40
2017-12-04T01:07:29.974Z,37.83
2017-12-04T01:09:58.291Z,38.80
2017-12-04T01:12:26.400Z,38.47
2017-12-04T01:14:54.486Z,36.17
2017-12-04T01:17:23.415Z,39.10
2017-12-04T01:19:51.532Z,38.13
2017-12-04T01:22:19.692Z,37.17
2017-12-04T01:24:47.809Z,38.90
2017-12-04T01:27:17.162Z,40.13
2017-12-04T01:29:45.255Z,42.73
2017-12-04T01:32:13.447Z,41.40
2017-12-04T01:34:41.586Z,46.10
2017-12-04T01:37:10.440Z,43.80
2017-12-04T01:39:38.523Z,45.50
2017-12-04T01:42:06.683Z,47.83
2017-12-04T01:44:34.771Z,44.20
2017-12-04T01:47:02.908Z,46.07
2017-12-04T01:49:31.001Z,46.47
2017-12-04T01:51:59.176Z,46.63
2017-12-04T01:54:27.383Z,43.30
2017-12-04T01:56:55.480Z,45.73
2017-12-04T01:59:23.643Z,46.27
2017-12-04T02:01:52.659Z,42.77
2017-12-04T02:04:21.884Z,45.27
2017-12-04T02:06:50.052Z,43.37
2017-12-04T02:09:18.167Z,41.67
2017-12-04T02:11:47.431Z,40.67
2017-12-04T02:14:15.603Z,41.73
2017-12-04T02:16:43.696Z,36.70
2017-12-04T02:19:11.827Z,38.90
2017-12-04T02:21:40.832Z,41.77
2017-12-04T02:24:09.000Z,41.33
2017-12-04T02:26:37.112Z,40.30
2017-12-04T02:29:06.113Z,41.23
2017-12-04T02:31:34.323Z,39.60
2017-12-04T02:34:02.417Z,39.00
2017-12-04T02:36:31.315Z,37.07
2017-12-04T02:38:59.475Z,38.70
2017-12-04T02:41:28.367Z,38.83
2017-12-04T02:43:57.240Z,38.87
2017-12-04T02:46:25.551Z,36.80
2017-12-04T02:48:53.640Z,38.37
2017-12-04T02:51:21.961Z,38.30
2017-12-04T02:53:50.172Z,37.40
2017-12-04T02:56:18.321Z,36.20
2017-12-04T02:58:46.412Z,37.40
2017-12-04T03:01:14.576Z,35.37
2017-12-04T03:03:43.447Z,38.43
2017-12-04T03:06:11.600Z,32.27
2017-12-04T03:08:39.800Z,35.20
2017-12-04T03:11:07.888Z,35.07
2017-12-04T03:13:36.740Z,37.10
2017-12-04T03:16:04.943Z,37.20
2017-12-04T03:18:33.075Z,37.17
2017-12-04T03:21:01.255Z,34.90
2017-12-04T03:23:29.372Z,35.50
2017-12-04T03:25:57.480Z,37.87
2017-12-04T03:28:25.624Z,35.77
2017-12-04T03:30:53.701Z,38.03
2017-12-04T03:33:22.660Z,36.97
2017-12-04T03:35:50.964Z,37.87
2017-12-04T03:38:19.457Z,39.10
2017-12-04T03:40:47.591Z,38.20
2017-12-04T03:43:15.987Z,36.83
2017-12-04T03:45:44.089Z,39.70
2017-12-04T03:48:12.343Z,39.67
2017-12-04T03:50:41.315Z,39.77
2017-12-04T03:53:09.419Z,36.57
2017-12-04T03:55:38.443Z,39.80
2017-12-04T03:58:06.672Z,40.87
2017-12-04T04:00:34.817Z,39.93
2017-12-04T04:03:03.372Z,40.00
2017-12-04T04:05:31.600Z,40.37
2017-12-04T04:07:59.688Z,41.80
2017-12-04T04:10:28.827Z,41.30
2017-12-04T04:12:56.903Z,40.37
2017-12-04T04:15:25.007Z,41.37
2017-12-04T04:17:53.155Z,40.30
2017-12-04T04:20:30.297Z,43.00
2017-12-04T04:22:58.413Z,42.17
2017-12-04T04:25:26.636Z,42.10
2017-12-04T04:27:55.508Z,42.40
2017-12-04T04:30:23.656Z,42.13
2017-12-04T04:32:53.701Z,42.67
2017-12-04T04:35:21.843Z,42.33
2017-12-04T04:37:50.025Z,41.30
2017-12-04T04:40:18.231Z,41.40
2017-12-04T04:42:46.450Z,41.87
2017-12-04T04:45:14.539Z,43.70
2017-12-04T04:47:43.595Z,43.57
2017-12-04T04:50:11.751Z,44.17
2017-12-04T04:52:41.054Z,44.30
2017-12-04T04:55:09.196Z,44.17
2017-12-04T04:57:37.777Z,44.53
2017-12-04T05:00:06.424Z,43.30
2017-12-04T05:02:34.495Z,45.47
2017-12-04T05:05:02.572Z,43.90
2017-12-04T05:07:30.820Z,46.10
2017-12-04T05:09:59.048Z,46.13
2017-12-04T05:12:27.446Z,44.17
2017-12-04T05:14:55.636Z,43.57
2017-12-04T05:17:23.809Z,45.77
2017-12-04T05:19:52.649Z,44.90
2017-12-04T05:22:20.776Z,42.60
2017-12-04T05:24:48.925Z,45.10
2017-12-04T05:27:17.145Z,43.20
2017-12-04T05:29:45.321Z,43.20
2017-12-04T05:32:13.448Z,43.47
2017-12-04T05:34:41.587Z,41.87
2017-12-04T05:37:09.803Z,42.90
2017-12-04T05:39:37.895Z,41.60
2017-12-04T05:42:06.051Z,42.97
2017-12-04T05:44:34.146Z,43.33
2017-12-04T05:47:02.274Z,43.03
2017-12-04T05:49:30.410Z,42.63
2017-12-04T05:51:58.504Z,41.07
2017-12-04T05:54:26.772Z,38.97
2017-12-04T05:56:55.149Z,40.50
2017-12-04T05:59:23.528Z,42.13
2017-12-04T06:01:51.805Z,38.23
2017-12-04T06:04:20.168Z,43.27
2017-12-04T06:06:48.340Z,40.10
2017-12-04T06:09:16.415Z,41.13
2017-12-04T06:11:44.649Z,37.93
2017-12-04T06:14:13.028Z,38.30
2017-12-04T06:16:41.446Z,40.30
2017-12-04T06:19:09.763Z,38.60
2017-12-04T06:21:37.835Z,37.37
2017-12-04T06:24:05.970Z,37.40
2017-12-04T06:26:34.075Z,36.60
2017-12-04T06:29:02.233Z,36.27
2017-12-04T06:31:30.343Z,37.13
2017-12-04T06:33:58.452Z,37.60
2017-12-04T06:36:27.300Z,37.37
2017-12-04T06:38:55.640Z,36.67
2017-12-04T06:41:23.759Z,38.70
2017-12-04T06:43:51.852Z,39.03
2017-12-04T06:46:20.742Z,39.37
2017-12-04T06:48:48.894Z,41.63
2017-12-04T06:51:16.975Z,39.87
2017-12-04T06:53:45.083Z,39.20
2017-12-04T06:56:13.526Z,41.47
2017-12-04T06:58:41.658Z,43.20
2017-12-04T07:01:09.776Z,43.13
2017-12-04T07:03:37.895Z,41.53
2017-12-04T07:06:06.016Z,40.87
2017-12-04T07:08:34.124Z,42.67
2017-12-04T07:11:02.268Z,42.67
2017-12-04T07:13:30.365Z,42.07
2017-12-04T07:15:59.224Z,45.37
2017-12-04T07:18:27.323Z,44.40
2017-12-04T07:20:56.186Z,45.60
2017-12-04T07:23:24.310Z,43.10
2017-12-04T07:25:52.395Z,40.30
2017-12-04T07:28:20.482Z,41.90
2017-12-04T07:30:48.609Z,41.77
2017-12-04T07:33:16.776Z,41.97
2017-12-04T07:35:44.867Z,41.83
2017-12-04T07:38:12.988Z,41.20
2017-12-04T07:40:41.096Z,41.70
2017-12-04T07:43:10.223Z,43.77
2017-12-04T07:45:38.363Z,41.87
2017-12-04T07:48:07.260Z,43.00
2017-12-04T07:50:35.363Z,42.53
2017-12-04T07:53:03.456Z,45.90
2017-12-04T07:55:31.585Z,44.00
2017-12-04T07:57:59.690Z,44.30
2017-12-04T08:00:27.900Z,43.17
2017-12-04T08:02:56.027Z,42.87
2017-12-04T08:05:24.115Z,42.10
2017-12-04T08:07:52.236Z,41.27
2017-12-04T08:10:20.392Z,42.30
2017-12-04T08:12:48.485Z,42.30
2017-12-04T08:15:17.416Z,42.70
2017-12-04T08:17:45.548Z,40.47
2017-12-04T08:20:14.404Z,44.27
2017-12-04T08:22:42.512Z,44.47
2017-12-04T08:25:11.408Z,54.43
2017-12-04T08:27:39.681Z,45.37
2017-12-04T08:30:08.529Z,42.40
2017-12-04T08:32:36.616Z,47.37
2017-12-04T08:35:04.888Z,43.50
2017-12-04T08:37:32.976Z,43.30
2017-12-04T08:40:01.092Z,44.30
2017-12-04T08:42:29.172Z,38.63
2017-12-04T08:44:58.224Z,44.47
2017-12-04T08:47:26.344Z,40.80
2017-12-04T08:49:54.446Z,40.23
2017-12-04T08:52:22.525Z,40.33
2017-12-04T08:54:50.616Z,41.80
2017-12-04T08:57:18.765Z,40.50
2017-12-04T08:59:46.928Z,43.53
2017-12-04T09:02:15.108Z,38.03
2017-12-04T09:04:43.245Z,40.00
2017-12-04T09:09:44.168Z,39.57
2017-12-04T09:12:12.366Z,38.63
2017-12-04T09:14:41.252Z,38.07
2017-12-04T09:17:09.447Z,40.60
2017-12-04T09:19:37.525Z,37.83
2017-12-04T09:22:05.627Z,37.67
2017-12-04T09:24:33.768Z,36.43
2017-12-04T09:27:01.867Z,37.63
2017-12-04T09:29:29.992Z,35.90
2017-12-04T09:31:58.189Z,35.93
2017-12-04T09:34:26.337Z,33.07
2017-12-04T09:36:54.459Z,34.73
2017-12-04T09:39:22.560Z,37.50
2017-12-04T09:41:50.692Z,36.53
2017-12-04T09:44:20.934Z,36.40
2017-12-04T09:46:49.056Z,35.17
2017-12-04T09:49:17.152Z,35.83
2017-12-04T09:51:45.270Z,35.00
2017-12-04T09:54:15.673Z,35.87
2017-12-04T09:56:43.864Z,33.43
2017-12-04T09:59:15.742Z,35.13
2017-12-04T10:01:46.034Z,37.10
2017-12-04T10:04:15.624Z,36.23
2017-12-04T10:06:44.569Z,34.07
2017-12-04T10:09:12.985Z,34.77
2017-12-04T10:11:41.130Z,36.17
2017-12-04T10:14:09.285Z,37.10
2017-12-04T10:16:40.384Z,35.50
2017-12-04T10:19:09.381Z,32.90
2017-12-04T10:21:52.378Z,35.27
2017-12-04T10:24:20.521Z,31.80
2017-12-04T10:26:49.452Z,38.70
2017-12-04T10:29:18.635Z,35.50
2017-12-04T10:31:48.007Z,32.23
2017-12-04T10:34:16.861Z,31.70
2017-12-04T10:36:44.953Z,33.47
2017-12-04T10:39:13.087Z,32.10
2017-12-04T10:41:41.228Z,33.80
2017-12-04T10:44:09.337Z,33.90
2017-12-04T10:46:37.443Z,33.10
2017-12-04T10:49:05.591Z,31.73
2017-12-04T10:51:33.670Z,31.23
2017-12-04T10:54:02.482Z,29.90
2017-12-04T10:56:30.660Z,29.97
2017-12-04T10:58:59.536Z,31.30
2017-12-04T11:01:27.689Z,32.00
2017-12-04T11:03:55.768Z,28.90
2017-12-04T11:06:23.928Z,32.67
2017-12-04T11:08:52.044Z,30.33
2017-12-04T11:11:20.176Z,31.50
2017-12-04T11:13:48.333Z,30.57
2017-12-04T11:16:16.433Z,30.50
2017-12-04T11:18:44.524Z,29.40
2017-12-04T11:21:12.623Z,26.97
2017-12-04T11:23:41.526Z,26.57
2017-12-04T11:26:10.373Z,27.03
2017-12-04T11:28:38.490Z,24.37
2017-12-04T11:31:06.575Z,25.37
2017-12-04T11:33:34.683Z,25.93
2017-12-04T11:36:02.887Z,24.43
2017-12-04T11:38:31.796Z,23.10
2017-12-04T11:41:00.663Z,24.97
2017-12-04T11:43:28.779Z,25.57
2017-12-04T11:45:56.901Z,24.50
2017-12-04T11:48:25.049Z,25.37
2017-12-04T11:50:53.184Z,21.70
2017-12-04T11:53:21.327Z,23.73
2017-12-04T11:55:49.486Z,21.73
2017-12-04T11:58:17.645Z,19.77
2017-12-04T12:00:45.782Z,18.50
2017-12-04T12:03:13.872Z,18.50
2017-12-04T12:05:42.087Z,19.20
2017-12-04T12:08:10.176Z,21.23
2017-12-04T12:10:39.072Z,20.87
2017-12-04T12:13:07.951Z,20.50
2017-12-04T12:15:36.101Z,19.50
2017-12-04T12:18:04.183Z,20.67
2017-12-04T12:20:32.332Z,19.70
2017-12-04T12:23:00.440Z,20.77
2017-12-04T12:25:28.693Z,20.27
2017-12-04T12:27:56.801Z,19.80
2017-12-04T12:30:24.952Z,21.30
2017-12-04T12:32:53.043Z,20.30
2017-12-04T12:35:21.966Z,21.47
2017-12-04T12:37:50.088Z,21.03
2017-12-04T12:40:18.270Z,19.90
2017-12-04T12:42:46.372Z,19.30
2017-12-04T12:45:16.198Z,18.70
2017-12-04T12:47:44.299Z,18.87
2017-12-04T12:50:12.387Z,20.50
2017-12-04T12:52:40.514Z,17.70
2017-12-04T12:55:08.619Z,19.67
2017-12-04T12:57:36.766Z,17.13
2017-12-04T13:00:04.852Z,17.50
2017-12-04T13:02:32.976Z,18.07
2017-12-04T13:05:01.097Z,19.07
2017-12-04T13:07:29.292Z,18.30
2017-12-04T13:09:57.413Z,16.90
2017-12-04T13:12:26.317Z,16.00
2017-12-04T13:14:54.424Z,16.80
2017-12-04T13:17:22.531Z,15.13
2017-12-04T13:19:50.707Z,16.03
2017-12-04T13:22:19.589Z,14.83
2017-12-04T13:24:47.765Z,14.57
2017-12-04T13:27:15.857Z,16.90
2017-12-04T13:29:44.021Z,13.90
2017-12-04T13:32:30.806Z,15.90
2017-12-04T13:35:16.565Z,14.80
2017-12-04T13:37:44.762Z,15.33
2017-12-04T13:40:12.905Z,14.93
2017-12-04T13:42:41.072Z,15.60
2017-12-04T13:45:09.219Z,14.13
2017-12-04T13:47:38.204Z,14.40
2017-12-04T13:50:07.043Z,14.00
2017-12-04T13:52:35.185Z,13.47
2017-12-04T13:55:03.283Z,12.80
2017-12-04T13:57:31.430Z,12.60
2017-12-04T13:59:59.598Z,12.13
2017-12-04T14:02:28.471Z,13.90
2017-12-04T14:04:56.635Z,11.80
2017-12-04T14:07:24.761Z,10.27
2017-12-04T14:09:53.324Z,11.93
2017-12-04T14:12:22.172Z,11.40
2017-12-04T14:14:50.340Z,12.70
2017-12-04T14:17:18.493Z,12.43
2017-12-04T14:19:46.599Z,12.57
2017-12-04T14:22:14.740Z,10.87
2017-12-04T14:24:42.855Z,11.20
2017-12-04T14:27:10.997Z,11.80
2017-12-04T14:29:39.102Z,11.90
2017-12-04T14:32:07.228Z,12.23
2017-12-04T14:34:35.381Z,12.40
2017-12-04T14:37:03.463Z,11.47
2017-12-04T14:39:33.387Z,11.53
2017-12-04T14:42:01.528Z,11.10
2017-12-04T14:44:29.603Z,13.10
2017-12-04T14:46:57.731Z,13.00
2017-12-04T14:49:25.907Z,13.33
2017-12-04T14:51:53.952Z,13.17
2017-12-04T14:54:22.064Z,13.30
2017-12-04T14:56:50.176Z,13.03
2017-12-04T14:59:18.325Z,12.97
2017-12-04T15:01:46.815Z,12.40
2017-12-04T15:04:15.730Z,14.60
2017-12-04T15:06:43.877Z,12.20
2017-12-04T15:09:11.994Z,12.40
2017-12-04T15:11:40.111Z,13.20
2017-12-04T15:14:08.207Z,13.03
2017-12-04T15:16:37.189Z,11.50
2017-12-04T15:19:06.076Z,11.17
2017-12-04T15:21:34.386Z,13.57
2017-12-04T15:24:04.229Z,13.00
2017-12-04T15:26:32.308Z,13.10
2017-12-04T15:29:00.430Z,13.60
2017-12-04T15:31:28.516Z,11.70
2017-12-04T15:33:56.681Z,13.47
2017-12-04T15:36:24.863Z,13.00
2017-12-04T15:38:53.007Z,12.47
2017-12-04T15:41:21.911Z,13.57
2017-12-04T15:43:51.057Z,12.77
2017-12-04T15:46:19.316Z,13.40
2017-12-04T15:48:47.487Z,13.53
2017-12-04T15:51:15.603Z,13.07
2017-12-04T15:53:44.658Z,14.77
2017-12-04T15:56:12.788Z,13.63
2017-12-04T15:58:41.653Z,15.33
2017-12-04T16:01:09.848Z,13.93
2017-12-04T16:03:37.983Z,16.80
2017-12-04T16:06:06.161Z,13.00
2017-12-04T16:08:34.341Z,12.77
2017-12-04T16:11:02.444Z,17.20
2017-12-04T16:13:30.576Z,15.40
2017-12-04T16:15:58.700Z,14.17
2017-12-04T16:18:27.600Z,15.80
2017-12-04T16:20:55.688Z,16.70
2017-12-04T16:23:23.827Z,13.83
2017-12-04T16:25:51.991Z,13.63
2017-12-04T16:28:20.123Z,16.27
2017-12-04T16:30:48.228Z,15.60
2017-12-04T16:33:16.370Z,16.13
2017-12-04T16:35:45.419Z,16.37
2017-12-04T16:38:14.313Z,16.20
2017-12-04T16:40:43.263Z,15.40
2017-12-04T16:43:11.376Z,16.47
2017-12-04T16:45:40.273Z,17.30
2017-12-04T16:48:08.405Z,20.20
2017-12-04T16:50:36.518Z,16.90
2017-12-04T16:53:05.432Z,16.47
2017-12-04T16:55:33.532Z,16.30
2017-12-04T16:58:01.671Z,17.63
2017-12-04T17:00:29.793Z,17.00
2017-12-04T17:02:57.872Z,19.10
2017-12-04T17:05:25.995Z,16.50
2017-12-04T17:07:54.207Z,16.13
2017-12-04T17:10:22.288Z,15.83
2017-12-04T17:12:50.450Z,15.23
2017-12-04T17:15:18.528Z,16.63
2017-12-04T17:17:46.648Z,17.07
2017-12-04T17:20:14.744Z,15.73
2017-12-04T17:22:46.549Z,16.00
2017-12-04T17:25:14.664Z,15.17
2017-12-04T17:27:42.984Z,15.83
2017-12-04T17:30:11.105Z,16.17
2017-12-04T17:32:40.260Z,16.47
2017-12-04T17:35:08.383Z,15.57
2017-12-04T17:37:36.472Z,14.33
2017-12-04T17:40:05.624Z,16.43
2017-12-04T17:42:34.542Z,15.40
2017-12-04T17:45:02.648Z,18.20
2017-12-04T17:47:30.806Z,16.73
2017-12-04T17:49:58.962Z,16.20
2017-12-04T17:52:27.129Z,16.10
2017-12-04T17:54:55.298Z,16.43
2017-12-04T17:57:23.440Z,17.67
2017-12-04T17:59:51.580Z,17.80
2017-12-04T18:02:19.676Z,16.20
2017-12-04T18:04:47.797Z,17.43
2017-12-04T18:07:15.921Z,18.37
2017-12-04T18:09:44.064Z,16.93
2017-12-04T18:12:12.152Z,17.00
2017-12-04T18:14:40.300Z,17.50
2017-12-04T18:17:08.397Z,18.00
2017-12-04T18:19:36.506Z,17.90
2017-12-04T18:22:04.633Z,17.30
2017-12-04T18:24:33.181Z,18.03
2017-12-04T18:27:03.298Z,18.00
2017-12-04T18:29:31.376Z,25.07
2017-12-04T18:31:59.512Z,22.97
2017-12-04T18:34:27.843Z,26.63
2017-12-04T18:36:59.895Z,21.17
2017-12-04T18:39:27.998Z,18.87
2017-12-04T18:41:56.160Z,19.40
2017-12-04T18:44:25.115Z,18.83
2017-12-04T18:46:53.276Z,20.43
2017-12-04T18:49:21.378Z,19.60
2017-12-04T18:51:49.492Z,21.10
2017-12-04T18:54:17.765Z,18.50
2017-12-04T18:56:45.872Z,20.07
2017-12-04T18:59:18.739Z,20.63
2017-12-04T19:01:46.825Z,20.00
2017-12-04T19:04:15.014Z,21.10
2017-12-04T19:06:43.201Z,20.27
2017-12-04T19:09:11.346Z,19.77
2017-12-04T19:11:39.482Z,20.17
2017-12-04T19:14:07.639Z,20.80
2017-12-04T19:16:35.764Z,20.80
2017-12-04T19:19:03.885Z,22.93
2017-12-04T19:21:32.011Z,21.33
2017-12-04T19:24:00.089Z,20.80
2017-12-04T19:26:28.213Z,21.00
2017-12-04T19:28:57.414Z,23.23
2017-12-04T19:31:25.586Z,23.33
2017-12-04T19:33:53.713Z,21.00
2017-12-04T19:36:22.593Z,21.40
2017-12-04T19:38:50.741Z,21.10
2017-12-04T19:41:18.872Z,21.37
2017-12-04T19:43:46.993Z,21.30
2017-12-04T19:46:15.085Z,21.27
2017-12-04T19:48:43.245Z,20.67
2017-12-04T19:51:11.357Z,22.10
2017-12-04T19:53:39.458Z,24.83
2017-12-04T19:56:07.659Z,22.27
2017-12-04T19:58:35.889Z,38.77
2017-12-04T20:01:05.058Z,27.40
2017-12-04T20:03:33.967Z,25.37
2017-12-04T20:06:02.114Z,26.80
2017-12-04T20:08:30.231Z,23.73
2017-12-04T20:10:58.370Z,28.20
2017-12-04T20:13:27.272Z,27.77
2017-12-04T20:15:55.419Z,21.43
2017-12-04T20:18:23.568Z,22.67
2017-12-04T20:20:51.776Z,22.10
2017-12-04T20:23:21.431Z,22.10
2017-12-04T20:25:49.601Z,21.50
2017-12-04T20:28:18.689Z,21.63
2017-12-04T20:30:46.772Z,22.57
2017-12-04T20:33:15.093Z,21.00
2017-12-04T20:35:43.173Z,21.77
2017-12-04T20:38:11.404Z,23.83
2017-12-04T20:40:39.544Z,23.13
2017-12-04T20:43:07.795Z,21.70
2017-12-04T20:45:36.721Z,23.60
2017-12-04T20:48:05.816Z,26.77
2017-12-04T20:50:34.010Z,22.97
2017-12-04T20:53:03.092Z,23.43
2017-12-04T20:55:31.273Z,23.17
2017-12-04T20:57:59.417Z,23.73
2017-12-04T21:00:28.621Z,23.00
2017-12-04T21:02:57.577Z,23.60
2017-12-04T21:05:25.772Z,23.83
2017-12-04T21:07:53.945Z,23.43
2017-12-04T21:10:39.735Z,24.37
2017-12-04T21:16:39.723Z,24.70
2017-12-04T21:19:08.053Z,25.63
2017-12-04T21:21:36.172Z,25.43
2017-12-04T21:24:05.219Z,24.20
2017-12-04T21:26:33.473Z,24.80
2017-12-04T21:29:01.773Z,24.20
2017-12-04T21:31:29.999Z,24.50
2017-12-04T21:33:58.252Z,24.47
2017-12-04T21:36:26.365Z,26.27
2017-12-04T21:38:54.719Z,38.43
2017-12-04T21:41:23.003Z,27.70
2017-12-04T21:43:53.910Z,27.27
2017-12-04T21:46:23.007Z,26.40
2017-12-04T21:48:51.293Z,22.37
2017-12-04T21:51:20.459Z,23.70
2017-12-04T21:53:50.395Z,22.93
2017-12-04T21:56:18.633Z,26.07
2017-12-04T21:58:46.719Z,23.80
2017-12-04T22:01:15.098Z,24.60
2017-12-04T22:03:43.303Z,22.07
2017-12-04T22:06:11.520Z,23.00
2017-12-04T22:08:39.736Z,22.10
2017-12-04T22:11:07.912Z,22.97
2017-12-04T22:13:36.907Z,21.43
2017-12-04T22:16:05.168Z,20.97
2017-12-04T22:18:33.374Z,23.27
2017-12-04T22:21:01.494Z,22.87
2017-12-04T22:23:29.657Z,22.40
2017-12-04T22:25:57.927Z,25.77
2017-12-04T22:28:26.070Z,25.47
2017-12-04T22:30:54.260Z,26.33
2017-12-04T22:33:22.506Z,26.77
2017-12-04T22:35:51.401Z,22.70
2017-12-04T22:38:19.612Z,22.33
2017-12-04T22:40:48.560Z,23.53
2017-12-04T22:43:17.462Z,24.53
2017-12-04T22:45:46.328Z,28.10
2017-12-04T22:48:14.457Z,28.70
2017-12-04T22:50:42.624Z,30.47
2017-12-04T22:53:10.780Z,29.47
2017-12-04T22:55:38.901Z,31.30
2017-12-04T22:58:07.040Z,29.93
2017-12-04T23:00:35.164Z,33.50
2017-12-04T23:03:03.331Z,35.73
2017-12-04T23:05:33.302Z,31.20
2017-12-04T23:08:01.391Z,33.07
2017-12-04T23:10:29.507Z,35.20
2017-12-04T23:12:58.442Z,34.67
2017-12-04T23:15:26.560Z,34.50
2017-12-04T23:17:54.648Z,37.07
2017-12-04T23:20:22.760Z,37.37
2017-12-04T23:22:50.987Z,38.93
2017-12-04T23:25:19.191Z,39.77
2017-12-04T23:27:47.439Z,38.20
2017-12-04T23:30:15.535Z,39.27
2017-12-04T23:32:43.676Z,38.77
2017-12-04T23:35:11.794Z,40.67
2017-12-04T23:37:39.924Z,44.63
2017-12-04T23:40:08.096Z,37.03
2017-12-04T23:42:36.212Z,43.77
2017-12-04T23:45:04.363Z,43.33
2017-12-04T23:47:33.343Z,40.90
2017-12-04T23:50:01.429Z,40.17
2017-12-04T23:52:30.364Z,40.10
2017-12-04T23:55:03.276Z,41.23
2017-12-04T23:57:31.350Z,40.40
